createdAt,value
2023-04-08T00:01:43.068Z,97471.13
2023-04-08T00:04:11.481Z,97466.69
2023-04-08T00:06:39.745Z,97449.38
2023-04-08T00:09:07.952Z,97463.06
2023-04-08T00:11:36.095Z,97462.25
2023-04-08T00:14:06.129Z,97466.69
2023-04-08T00:16:34.821Z,97423.78
2023-04-08T00:19:03.044Z,97465.97
2023-04-08T00:21:31.768Z,97460.84
2023-04-08T00:24:00.228Z,97459.25
2023-04-08T00:26:28.420Z,97444.75
2023-04-08T00:28:56.600Z,97464.41
2023-04-08T00:31:26.328Z,97462.50
2023-04-08T00:33:54.510Z,97403.97
2023-04-08T00:36:22.706Z,97455.44
2023-04-08T00:38:51.029Z,97440.88
2023-04-08T00:41:19.370Z,97458.06
2023-04-08T00:43:47.515Z,97457.28
2023-04-08T00:46:15.833Z,97454.81
2023-04-08T00:48:45.439Z,97460.03
2023-04-08T00:51:14.216Z,97459.09
2023-04-08T00:53:42.399Z,97458.41
2023-04-08T00:56:11.161Z,97459.22
2023-04-08T00:58:40.357Z,97459.94
2023-04-08T01:01:13.944Z,97461.47
2023-04-08T01:03:57.284Z,97458.88
2023-04-08T01:06:32.471Z,97461.41
2023-04-08T01:09:01.952Z,97402.22
2023-04-08T01:11:32.902Z,97457.03
2023-04-08T01:14:05.829Z,97450.06
2023-04-08T01:16:35.308Z,97470.19
2023-04-08T01:19:09.402Z,97456.38
2023-04-08T01:21:39.303Z,97434.94
2023-04-08T01:24:17.141Z,97451.28
2023-04-08T01:26:47.244Z,97453.31
2023-04-08T01:29:16.281Z,97453.22
2023-04-08T01:31:46.342Z,97444.31
2023-04-08T01:34:17.069Z,97435.56
2023-04-08T01:36:48.158Z,97421.16
2023-04-08T01:39:17.989Z,97396.56
2023-04-08T01:41:48.151Z,97453.19
2023-04-08T01:44:18.288Z,97457.75
2023-04-08T01:46:46.753Z,97444.03
2023-04-08T01:49:17.237Z,97450.19
2023-04-08T01:51:47.672Z,97448.34
2023-04-08T01:54:16.340Z,97449.97
2023-04-08T01:56:47.858Z,97441.47
2023-04-08T01:59:18.271Z,97404.41
2023-04-08T02:01:46.859Z,97437.88
2023-04-08T02:04:15.240Z,97446.78
2023-04-08T02:06:43.878Z,97441.78
2023-04-08T02:09:12.349Z,97423.72
2023-04-08T02:11:40.496Z,97452.13
2023-04-08T02:14:10.060Z,97455.53
2023-04-08T02:16:44.322Z,97458.09
2023-04-08T02:19:19.731Z,97458.09
2023-04-08T02:21:51.512Z,97431.38
2023-04-08T02:24:20.763Z,97452.56
2023-04-08T02:26:52.217Z,97114.13
2023-04-08T02:29:21.967Z,97455.25
2023-04-08T02:31:52.350Z,97462.25
2023-04-08T02:34:23.241Z,97460.38
2023-04-08T02:36:52.337Z,97455.94
2023-04-08T02:39:20.620Z,97398.75
2023-04-08T02:41:48.710Z,97460.22
2023-04-08T02:44:16.940Z,97453.19
2023-04-08T02:46:46.460Z,97460.47
2023-04-08T02:49:14.511Z,97444.88
2023-04-08T02:51:42.661Z,97451.09
2023-04-08T02:54:10.710Z,97442.34
2023-04-08T02:56:38.835Z,97450.31
2023-04-08T02:59:06.937Z,97446.69
2023-04-08T03:01:35.192Z,97450.47
2023-04-08T03:04:04.973Z,97446.19
2023-04-08T03:06:33.260Z,97448.69
2023-04-08T03:09:01.377Z,97446.94
2023-04-08T03:11:29.554Z,97432.25
2023-04-08T03:13:57.727Z,97405.63
2023-04-08T03:16:25.873Z,97448.69
2023-04-08T03:18:54.235Z,97457.22
2023-04-08T03:21:23.800Z,97460.75
2023-04-08T03:23:52.013Z,97461.81
2023-04-08T03:26:20.117Z,97468.59
2023-04-08T03:28:48.480Z,97457.31
2023-04-08T03:31:17.115Z,97452.88
2023-04-08T03:33:45.240Z,97451.19
2023-04-08T03:36:13.406Z,97438.25
2023-04-08T03:38:42.985Z,97454.50
2023-04-08T03:41:11.354Z,97428.03
2023-04-08T03:43:39.503Z,97467.69
2023-04-08T03:46:07.703Z,97473.78
2023-04-08T03:48:35.959Z,97475.66
2023-04-08T03:51:04.143Z,97475.78
2023-04-08T03:53:32.385Z,97473.19
2023-04-08T03:56:03.571Z,97457.13
2023-04-08T03:58:32.099Z,97340.28
2023-04-08T04:01:00.576Z,97480.34
2023-04-08T04:03:29.078Z,97467.84
2023-04-08T04:05:57.311Z,97484.91
2023-04-08T04:08:25.478Z,97368.78
2023-04-08T04:10:53.595Z,97496.03
2023-04-08T04:13:23.115Z,97504.81
2023-04-08T04:15:51.316Z,97503.19
2023-04-08T04:18:19.597Z,97466.16
2023-04-08T04:20:47.734Z,97500.53
2023-04-08T04:23:15.899Z,97510.25
2023-04-08T04:25:44.392Z,97507.72
2023-04-08T04:28:12.586Z,97518.91
2023-04-08T04:30:42.196Z,97517.97
2023-04-08T04:33:10.375Z,97517.97
2023-04-08T04:35:38.562Z,97497.53
2023-04-08T04:38:10.779Z,97514.78
2023-04-08T04:40:38.981Z,97494.00
2023-04-08T04:43:07.163Z,97426.25
2023-04-08T04:45:35.555Z,97529.56
2023-04-08T04:48:05.337Z,97526.00
2023-04-08T04:50:33.509Z,97546.03
2023-04-08T04:53:01.567Z,97538.19
2023-04-08T04:55:29.633Z,97535.69
2023-04-08T04:57:57.798Z,97551.38
2023-04-08T05:00:25.968Z,97552.41
2023-04-08T05:02:54.248Z,97549.72
2023-04-08T05:05:24.040Z,97556.59
2023-04-08T05:07:52.275Z,97560.03
2023-04-08T05:10:20.720Z,97544.56
2023-04-08T05:12:48.908Z,97565.19
2023-04-08T05:15:17.015Z,97565.25
2023-04-08T05:17:45.232Z,97568.88
2023-04-08T05:20:14.869Z,97562.91
2023-04-08T05:22:45.597Z,97555.31
2023-04-08T05:25:13.801Z,97566.44
2023-04-08T05:27:41.898Z,97530.22
2023-04-08T05:30:11.285Z,97571.63
2023-04-08T05:32:39.503Z,97557.25
2023-04-08T05:35:09.622Z,97586.63
2023-04-08T05:37:37.730Z,97585.81
2023-04-08T05:40:08.640Z,97591.78
2023-04-08T05:42:36.968Z,97463.41
2023-04-08T05:45:05.576Z,97570.16
2023-04-08T05:47:34.642Z,97596.13
2023-04-08T05:50:02.752Z,97597.84
2023-04-08T05:52:30.926Z,97584.09
2023-04-08T05:54:59.103Z,97613.38
2023-04-08T05:57:28.626Z,97516.94
2023-04-08T05:59:56.707Z,97582.41
2023-04-08T06:02:25.054Z,97571.16
2023-04-08T06:04:53.366Z,97608.31
2023-04-08T06:07:21.467Z,97567.81
2023-04-08T06:09:49.609Z,97574.00
2023-04-08T06:12:17.837Z,97572.25
2023-04-08T06:14:47.366Z,97592.06
2023-04-08T06:17:15.491Z,97600.69
2023-04-08T06:19:43.585Z,97616.28
2023-04-08T06:22:11.711Z,97616.25
2023-04-08T06:24:40.211Z,97593.03
2023-04-08T06:27:08.603Z,97624.91
2023-04-08T06:29:37.144Z,97618.81
2023-04-08T06:32:07.290Z,97623.03
2023-04-08T06:34:35.502Z,97633.38
2023-04-08T06:37:03.979Z,97633.38
2023-04-08T06:39:32.120Z,97549.69
2023-04-08T06:42:00.302Z,97635.00
2023-04-08T06:44:28.444Z,97616.94
2023-04-08T06:46:56.984Z,97592.75
2023-04-08T06:49:27.545Z,97638.41
2023-04-08T06:51:55.885Z,97628.09
2023-04-08T06:54:24.075Z,97623.72
2023-04-08T06:56:52.638Z,97574.63
2023-04-08T06:59:20.817Z,97653.91
2023-04-08T07:01:49.037Z,97655.63
2023-04-08T07:04:17.682Z,97646.16
2023-04-08T07:06:47.262Z,97634.06
2023-04-08T07:09:15.431Z,97662.53
2023-04-08T07:11:43.663Z,97659.97
2023-04-08T07:14:13.014Z,97619.44
2023-04-08T07:16:41.151Z,97659.97
2023-04-08T07:19:09.416Z,97666.03
2023-04-08T07:21:37.639Z,97673.03
2023-04-08T07:24:07.656Z,97657.56
2023-04-08T07:26:35.824Z,97675.69
2023-04-08T07:29:04.005Z,97674.75
2023-04-08T07:31:32.297Z,97667.94
2023-04-08T07:34:00.796Z,97680.84
2023-04-08T07:36:29.076Z,97690.31
2023-04-08T07:38:57.318Z,97689.38
2023-04-08T07:41:27.227Z,97660.09
2023-04-08T07:43:56.022Z,97652.28
2023-04-08T07:46:24.313Z,97698.00
2023-04-08T07:48:53.100Z,97696.31
2023-04-08T07:51:21.781Z,97635.22
2023-04-08T07:53:50.061Z,97706.78
2023-04-08T07:56:19.439Z,97625.72
2023-04-08T07:58:53.417Z,97708.53
2023-04-08T08:01:23.049Z,97708.53
2023-04-08T08:03:52.902Z,97562.03
2023-04-08T08:06:22.224Z,97719.03
2023-04-08T08:08:50.562Z,97730.31
2023-04-08T08:11:18.744Z,97727.75
2023-04-08T08:13:48.621Z,97727.81
2023-04-08T08:16:17.054Z,97727.91
2023-04-08T08:18:45.264Z,97732.25
2023-04-08T08:21:13.554Z,97731.41
2023-04-08T08:23:41.869Z,97687.34
2023-04-08T08:26:11.393Z,97729.63
2023-04-08T08:28:40.602Z,97738.25
2023-04-08T08:31:10.201Z,97737.38
2023-04-08T08:33:38.437Z,97700.31
2023-04-08T08:36:07.528Z,97758.19
2023-04-08T08:38:35.960Z,97743.44
2023-04-08T08:41:04.893Z,97758.13
2023-04-08T08:43:34.717Z,97715.03
2023-04-08T08:46:03.794Z,97757.28
2023-04-08T08:48:34.192Z,97677.94
2023-04-08T08:51:02.780Z,97734.81
2023-04-08T08:53:35.678Z,97731.28
2023-04-08T08:58:35.518Z,97750.94
2023-04-08T09:01:03.704Z,97756.25
2023-04-08T09:03:33.495Z,97736.50
2023-04-08T09:06:04.059Z,97757.97
2023-04-08T09:08:33.344Z,97707.09
2023-04-08T09:11:16.355Z,97743.41
2023-04-08T09:13:45.316Z,97769.19
2023-04-08T09:16:18.065Z,97774.34
2023-04-08T09:18:49.843Z,97771.75
2023-04-08T09:21:19.194Z,97770.97
2023-04-08T09:23:49.445Z,97691.63
2023-04-08T09:26:19.831Z,97775.16
2023-04-08T09:29:03.937Z,97757.78
2023-04-08T09:31:41.572Z,97739.72
2023-04-08T09:34:14.640Z,97756.94
2023-04-08T09:36:42.944Z,97776.72
2023-04-08T09:39:11.484Z,97734.41
2023-04-08T09:41:40.729Z,97777.59
2023-04-08T09:44:10.596Z,97781.78
2023-04-08T09:46:42.354Z,97783.47
2023-04-08T09:49:14.457Z,97792.13
2023-04-08T09:51:51.158Z,97774.75
2023-04-08T09:54:23.282Z,97796.31
2023-04-08T09:57:03.711Z,97703.06
2023-04-08T09:59:36.761Z,97794.41
2023-04-08T10:02:11.036Z,97787.44
2023-04-08T10:04:46.356Z,97752.00
2023-04-08T10:07:16.514Z,97795.03
2023-04-08T10:09:45.435Z,97764.53
2023-04-08T10:12:14.254Z,97762.00
2023-04-08T10:14:42.856Z,97788.31
2023-04-08T10:17:27.953Z,97796.69
2023-04-08T10:19:58.872Z,97788.66
2023-04-08T10:22:49.746Z,97786.06
2023-04-08T10:25:32.994Z,97743.69
2023-04-08T10:28:03.593Z,97729.03
2023-04-08T10:30:43.082Z,97793.09
2023-04-08T10:33:13.562Z,97787.13
2023-04-08T10:35:46.651Z,97773.25
2023-04-08T10:38:15.394Z,97788.19
2023-04-08T10:40:44.752Z,97736.25
2023-04-08T10:43:14.079Z,97712.16
2023-04-08T10:45:43.157Z,97784.66
2023-04-08T10:48:18.031Z,97775.78
2023-04-08T10:50:55.320Z,97777.56
2023-04-08T10:53:28.421Z,97780.84
2023-04-08T10:55:56.885Z,97778.09
2023-04-08T10:58:25.201Z,97667.47
2023-04-08T11:00:53.490Z,97783.00
2023-04-08T11:03:21.827Z,97779.06
2023-04-08T11:05:51.836Z,97782.69
2023-04-08T11:08:21.020Z,97784.41
2023-04-08T11:10:49.967Z,97632.72
2023-04-08T11:13:18.192Z,97778.19
2023-04-08T11:15:46.697Z,97781.75
2023-04-08T11:18:15.115Z,97773.91
2023-04-08T11:20:45.251Z,97755.22
2023-04-08T11:23:17.324Z,97779.28
2023-04-08T11:25:48.229Z,97618.97
2023-04-08T11:28:16.608Z,97760.22
2023-04-08T11:30:45.266Z,97775.00
2023-04-08T11:33:14.674Z,97780.22
2023-04-08T11:35:43.286Z,97620.75
2023-04-08T11:38:12.702Z,97403.81
2023-04-08T11:40:53.539Z,97749.00
2023-04-08T11:43:22.191Z,97749.50
2023-04-08T11:45:50.649Z,97776.91
2023-04-08T11:48:19.350Z,97782.91
2023-04-08T11:50:47.635Z,97772.09
2023-04-08T11:53:19.815Z,97774.53
2023-04-08T11:55:50.023Z,97771.81
2023-04-08T11:58:18.468Z,97775.31
2023-04-08T12:00:46.941Z,97771.69
2023-04-08T12:03:15.422Z,97690.34
2023-04-08T12:05:43.902Z,97767.59
2023-04-08T12:08:12.112Z,97760.09
2023-04-08T12:10:40.384Z,97766.97
2023-04-08T12:13:09.979Z,97776.66
2023-04-08T12:15:38.544Z,97774.94
2023-04-08T12:18:07.007Z,97777.84
2023-04-08T12:20:35.213Z,97776.25
2023-04-08T12:23:03.449Z,97770.97
2023-04-08T12:25:31.797Z,97767.47
2023-04-08T12:28:00.056Z,97756.47
2023-04-08T12:30:29.701Z,97749.31
2023-04-08T12:32:58.045Z,97762.06
2023-04-08T12:35:26.370Z,97739.69
2023-04-08T12:37:54.670Z,97717.13
2023-04-08T12:40:22.909Z,97767.00
2023-04-08T12:42:51.297Z,97771.16
2023-04-08T12:45:19.432Z,97749.59
2023-04-08T12:47:49.071Z,97760.00
2023-04-08T12:50:17.540Z,97771.06
2023-04-08T12:52:45.679Z,97764.13
2023-04-08T12:55:13.909Z,97765.84
2023-04-08T12:57:42.114Z,97765.09
2023-04-08T13:00:11.589Z,97764.41
2023-04-08T13:02:40.731Z,97768.72
2023-04-08T13:05:11.142Z,97676.47
2023-04-08T13:07:39.399Z,97639.34
2023-04-08T13:10:09.303Z,97771.06
2023-04-08T13:12:40.298Z,97770.34
2023-04-08T13:15:10.177Z,97765.94
2023-04-08T13:17:38.389Z,97775.56
2023-04-08T13:20:09.745Z,97766.00
2023-04-08T13:22:41.473Z,97717.91
2023-04-08T13:25:10.708Z,97767.09
2023-04-08T13:27:38.921Z,97689.88
2023-04-08T13:30:08.381Z,97768.44
2023-04-08T13:32:36.689Z,97764.06
2023-04-08T13:35:05.139Z,97773.66
2023-04-08T13:37:33.430Z,97583.31
2023-04-08T13:40:03.436Z,97774.81
2023-04-08T13:42:32.949Z,97757.41
2023-04-08T13:45:01.173Z,97774.66
2023-04-08T13:47:29.430Z,97774.78
2023-04-08T13:49:57.565Z,97770.38
2023-04-08T13:52:25.803Z,97778.28
2023-04-08T13:54:54.108Z,97617.22
2023-04-08T13:57:23.790Z,97744.72
2023-04-08T13:59:51.972Z,97776.63
2023-04-08T14:02:20.344Z,97774.94
2023-04-08T14:04:48.558Z,97743.84
2023-04-08T14:07:16.930Z,97785.31
2023-04-08T14:09:45.172Z,97785.38
2023-04-08T14:12:13.313Z,97713.09
2023-04-08T14:14:42.874Z,97786.44
2023-04-08T14:17:11.120Z,97789.84
2023-04-08T14:19:39.438Z,97773.44
2023-04-08T14:22:07.800Z,97735.53
2023-04-08T14:24:35.983Z,97790.72
2023-04-08T14:27:04.912Z,97774.31
2023-04-08T14:29:33.255Z,97795.03
2023-04-08T14:32:03.143Z,97793.28
2023-04-08T14:34:31.403Z,97768.22
2023-04-08T14:36:59.570Z,97778.75
2023-04-08T14:39:28.417Z,97788.34
2023-04-08T14:41:57.447Z,97801.25
2023-04-08T14:44:25.930Z,97801.22
2023-04-08T14:46:54.219Z,97683.06
2023-04-08T14:49:23.916Z,97779.59
2023-04-08T14:51:53.313Z,97802.91
2023-04-08T14:54:21.789Z,97804.69
2023-04-08T14:56:50.038Z,97823.81
2023-04-08T14:59:18.259Z,97805.53
2023-04-08T15:01:46.512Z,97817.72
2023-04-08T15:04:14.818Z,97782.38
2023-04-08T15:06:44.525Z,97806.53
2023-04-08T15:09:12.783Z,97815.97
2023-04-08T15:11:41.071Z,97823.84
2023-04-08T15:14:09.284Z,97817.84
2023-04-08T15:16:37.598Z,97826.56
2023-04-08T15:19:06.054Z,97826.50
2023-04-08T15:21:34.290Z,97823.94
2023-04-08T15:24:03.823Z,97830.03
2023-04-08T15:26:32.760Z,97700.75
2023-04-08T15:29:00.927Z,97821.50
2023-04-08T15:31:29.029Z,97836.22
2023-04-08T15:33:58.456Z,97840.63
2023-04-08T15:36:26.870Z,97845.03
2023-04-08T15:38:54.973Z,97839.09
2023-04-08T15:41:24.719Z,97845.06
2023-04-08T15:43:54.116Z,97850.22
2023-04-08T15:46:22.813Z,97848.50
2023-04-08T15:48:52.693Z,97855.50
2023-04-08T15:51:21.304Z,97847.78
2023-04-08T15:53:50.438Z,97854.69
2023-04-08T15:56:18.983Z,97792.63
2023-04-08T15:58:48.740Z,97862.47
2023-04-08T16:01:18.918Z,97853.06
2023-04-08T16:03:47.210Z,97872.09
2023-04-08T16:06:15.725Z,97811.63
2023-04-08T16:08:44.889Z,97869.50
2023-04-08T16:11:13.156Z,97875.59
2023-04-08T16:13:42.585Z,97881.69
2023-04-08T16:16:12.646Z,97880.84
2023-04-08T16:18:42.046Z,97882.56
2023-04-08T16:21:10.431Z,97881.72
2023-04-08T16:23:38.760Z,97760.91
2023-04-08T16:26:08.465Z,97907.84
2023-04-08T16:28:37.109Z,97893.94
2023-04-08T16:31:05.493Z,97903.50
2023-04-08T16:33:35.167Z,97901.84
2023-04-08T16:36:04.351Z,97868.22
2023-04-08T16:38:33.180Z,97902.75
2023-04-08T16:41:01.467Z,97908.03
2023-04-08T16:43:29.711Z,97908.03
2023-04-08T16:45:57.879Z,97908.03
2023-04-08T16:48:26.270Z,97910.66
2023-04-08T16:50:55.907Z,97923.66
2023-04-08T16:53:24.098Z,97919.28
2023-04-08T16:55:52.295Z,97921.03
2023-04-08T16:58:20.509Z,97916.69
2023-04-08T17:00:48.687Z,97921.94
2023-04-08T17:03:17.036Z,97964.44
2023-04-08T17:05:45.303Z,97934.91
2023-04-08T17:08:15.796Z,97931.47
2023-04-08T17:10:45.481Z,97930.63
2023-04-08T17:13:14.937Z,97942.84
2023-04-08T17:15:43.255Z,97948.91
2023-04-08T17:18:11.452Z,97927.34
2023-04-08T17:20:39.545Z,97953.28
2023-04-08T17:23:08.459Z,97963.72
2023-04-08T17:25:38.261Z,97965.47
2023-04-08T17:28:06.555Z,97902.38
2023-04-08T17:30:34.687Z,97945.63
2023-04-08T17:33:03.632Z,97975.03
2023-04-08T17:35:31.995Z,97979.38
2023-04-08T17:38:00.181Z,97917.09
2023-04-08T17:40:28.289Z,97982.00
2023-04-08T17:42:57.919Z,97879.94
2023-04-08T17:45:26.630Z,97989.78
2023-04-08T17:47:54.927Z,97990.63
2023-04-08T17:50:23.058Z,97949.16
2023-04-08T17:52:51.291Z,97982.00
2023-04-08T17:55:19.530Z,97984.59
2023-04-08T17:57:49.780Z,97988.06
2023-04-08T18:00:19.374Z,97998.47
2023-04-08T18:02:49.639Z,97977.69
2023-04-08T18:05:18.270Z,97995.88
2023-04-08T18:07:46.595Z,97943.09
2023-04-08T18:10:14.980Z,98016.66
2023-04-08T18:12:43.224Z,98017.53
2023-04-08T18:15:12.313Z,98021.00
2023-04-08T18:17:42.029Z,98023.63
2023-04-08T18:20:11.216Z,98001.13
2023-04-08T18:22:39.399Z,97975.16
2023-04-08T18:25:08.689Z,98030.56
2023-04-08T18:27:37.064Z,98027.94
2023-04-08T18:30:05.767Z,98040.94
2023-04-08T18:32:34.141Z,98028.81
2023-04-08T18:35:03.870Z,97996.81
2023-04-08T18:37:32.586Z,98055.69
2023-04-08T18:40:02.484Z,98066.06
2023-04-08T18:42:30.780Z,98068.66
2023-04-08T18:44:58.957Z,98065.22
2023-04-08T18:47:27.184Z,98067.81
2023-04-08T18:49:56.690Z,98044.41
2023-04-08T18:52:26.238Z,98066.06
2023-04-08T18:54:54.769Z,98073.00
2023-04-08T18:57:23.303Z,97968.28
2023-04-08T18:59:51.545Z,98081.66
2023-04-08T19:02:19.795Z,98092.94
2023-04-08T19:04:48.016Z,98086.84
2023-04-08T19:07:17.184Z,98079.94
2023-04-08T19:09:46.843Z,98087.75
2023-04-08T19:12:15.064Z,98073.88
2023-04-08T19:14:43.286Z,98067.84
2023-04-08T19:17:11.550Z,98095.53
2023-04-08T19:19:40.150Z,98082.53
2023-04-08T19:22:08.327Z,98096.38
2023-04-08T19:24:36.845Z,98028.00
2023-04-08T19:27:06.660Z,98100.72
2023-04-08T19:29:35.176Z,98100.72
2023-04-08T19:32:04.375Z,98081.69
2023-04-08T19:34:32.574Z,98105.94
2023-04-08T19:37:00.776Z,98109.41
2023-04-08T19:39:29.229Z,98085.13
2023-04-08T19:41:57.870Z,98113.75
2023-04-08T19:44:27.532Z,98089.50
2023-04-08T19:46:57.906Z,97615.44
2023-04-08T19:49:26.604Z,98109.41
2023-04-08T19:51:54.831Z,98112.00
2023-04-08T19:54:23.074Z,98106.78
2023-04-08T19:56:51.281Z,98055.69
2023-04-08T19:59:19.611Z,98112.00
2023-04-08T20:01:49.230Z,98053.94
2023-04-08T20:04:17.509Z,98118.88
2023-04-08T20:06:45.730Z,97997.59
2023-04-08T20:09:13.828Z,98102.41
2023-04-08T20:11:42.269Z,98099.78
2023-04-08T20:14:10.589Z,98120.59
2023-04-08T20:16:38.705Z,98014.88
2023-04-08T20:19:08.270Z,98118.88
2023-04-08T20:21:36.495Z,98104.13
2023-04-08T20:24:04.839Z,98118.00
2023-04-08T20:26:32.970Z,98125.81
2023-04-08T20:29:01.744Z,98111.94
2023-04-08T20:31:32.270Z,98106.75
2023-04-08T20:34:00.538Z,98087.69
2023-04-08T20:36:30.251Z,98121.50
2023-04-08T20:38:58.319Z,98106.72
2023-04-08T20:41:27.359Z,98104.09
2023-04-08T20:43:55.897Z,98126.66
2023-04-08T20:46:24.607Z,98102.38
2023-04-08T20:48:53.085Z,98126.63
2023-04-08T20:51:21.532Z,98117.91
2023-04-08T20:53:51.134Z,98102.31
2023-04-08T20:56:19.461Z,98000.94
2023-04-08T20:58:47.583Z,98135.25
2023-04-08T21:01:15.963Z,98129.19
2023-04-08T21:03:44.599Z,98135.25
2023-04-08T21:06:17.449Z,98133.50
2023-04-08T21:08:45.835Z,98131.75
2023-04-08T21:11:15.619Z,98097.03
2023-04-08T21:13:44.580Z,98130.00
2023-04-08T21:16:13.741Z,98129.16
2023-04-08T21:18:41.938Z,98133.44
2023-04-08T21:21:11.283Z,98141.25
2023-04-08T21:23:39.483Z,98097.03
2023-04-08T21:26:13.545Z,98137.78
2023-04-08T21:28:44.130Z,97991.31
2023-04-08T21:31:13.125Z,98137.78
2023-04-08T21:33:41.670Z,98136.00
2023-04-08T21:36:09.872Z,98139.47
2023-04-08T21:38:38.182Z,98064.84
2023-04-08T21:41:06.404Z,98135.84
2023-04-08T21:43:34.540Z,98074.28
2023-04-08T21:46:04.468Z,98143.63
2023-04-08T21:48:32.717Z,97982.28
2023-04-08T21:51:01.075Z,98111.47
2023-04-08T21:53:29.182Z,98142.66
2023-04-08T21:55:57.323Z,98142.69
2023-04-08T21:58:25.859Z,98144.34
2023-04-08T22:00:53.962Z,98141.75
2023-04-08T22:03:23.648Z,98133.09
2023-04-08T22:05:51.974Z,98142.56
2023-04-08T22:08:20.146Z,98119.97
2023-04-08T22:10:51.313Z,98096.50
2023-04-08T22:13:20.730Z,98140.75
2023-04-08T22:15:48.870Z,98138.13
2023-04-08T22:18:16.984Z,98040.97
2023-04-08T22:20:46.612Z,98078.06
2023-04-08T22:23:14.741Z,98138.97
2023-04-08T22:25:42.985Z,98063.41
2023-04-08T22:28:11.500Z,98066.97
2023-04-08T22:30:39.612Z,98117.25
2023-04-08T22:33:07.746Z,98140.66
2023-04-08T22:35:36.761Z,98085.13
2023-04-08T22:38:06.301Z,98140.66
2023-04-08T22:40:36.888Z,98127.59
2023-04-08T22:43:04.947Z,98103.38
2023-04-08T22:45:33.224Z,98136.34
2023-04-08T22:48:01.494Z,98145.75
2023-04-08T22:50:29.742Z,98091.06
2023-04-08T22:52:57.932Z,98079.84
2023-04-08T22:55:27.529Z,98141.50
2023-04-08T22:57:55.768Z,98118.97
2023-04-08T23:00:23.983Z,98142.38
2023-04-08T23:02:52.174Z,98080.72
2023-04-08T23:05:20.475Z,98054.59
2023-04-08T23:07:48.576Z,98152.69
2023-04-08T23:10:16.727Z,98105.81
2023-04-08T23:12:46.241Z,98144.88
2023-04-08T23:15:14.352Z,98150.91
2023-04-08T23:17:42.458Z,98148.22
2023-04-08T23:20:11.190Z,98144.69
2023-04-08T23:22:39.313Z,98143.84
2023-04-08T23:25:08.636Z,98141.25
2023-04-08T23:27:36.773Z,98141.19
2023-04-08T23:30:07.656Z,98139.47
2023-04-08T23:32:36.425Z,98148.91
2023-04-08T23:35:04.900Z,98142.84
2023-04-08T23:37:32.964Z,98141.13
2023-04-08T23:40:01.115Z,98139.41
2023-04-08T23:42:29.234Z,98139.41
2023-04-08T23:44:57.371Z,98022.31
2023-04-08T23:47:26.930Z,98138.59
2023-04-08T23:49:55.056Z,98142.06
2023-04-08T23:52:23.113Z,98133.53
2023-04-08T23:54:51.829Z,98141.41
2023-04-08T23:57:20.763Z,98123.22
2023-04-08T23:59:49.034Z,98139.72
